sensor_id;sensor_type;location;lat;lon;timestamp;temperature;humidity
5848;DHT22;8756;49.29324300;8.70599800;2022-10-31T00:01:00;12.20;99.90
5848;DHT22;8756;49.29324300;8.70599800;2022-10-31T00:03:26;12.20;99.90
5848;DHT22;8756;49.29324300;8.70599800;2022-10-31T00:05:52;12.10;99.90
5848;DHT22;8756;49.29324300;8.70599800;2022-10-31T00:08:18;12.10;99.90
5848;DHT22;8756;49.29324300;8.70599800;2022-10-31T00:10:45;12.00;99.90
5848;DHT22;8756;49.29324300;8.70599800;2022-10-31T00:13:12;12.00;99.90
5848;DHT22;8756;49.29324300;8.70599800;2022-10-31T00:15:39;11.90;99.90
5848;DHT22;8756;49.29324300;8.70599800;2022-10-31T00:18:07;11.90;99.90
5848;DHT22;8756;49.29324300;8.70599800;2022-10-31T00:20:34;11.90;99.90
5848;DHT22;8756;49.29324300;8.70599800;2022-10-31T00:23:00;11.80;99.90
5848;DHT22;8756;49.29324300;8.70599800;2022-10-31T00:25:27;11.70;99.90
5848;DHT22;8756;49.29324300;8.70599800;2022-10-31T00:27:54;11.70;99.90
5848;DHT22;8756;49.29324300;8.70599800;2022-10-31T00:30:20;11.70;99.90
5848;DHT22;8756;49.29324300;8.70599800;2022-10-31T00:32:45;11.70;99.90
5848;DHT22;8756;49.29324300;8.70599800;2022-10-31T00:35:11;11.70;99.90
5848;DHT22;8756;49.29324300;8.70599800;2022-10-31T00:37:37;11.70;99.90
5848;DHT22;8756;49.29324300;8.70599800;2022-10-31T00:40:02;11.70;99.90
5848;DHT22;8756;49.29324300;8.70599800;2022-10-31T00:42:28;11.70;99.90
5848;DHT22;8756;49.29324300;8.70599800;2022-10-31T00:44:54;11.70;99.90
5848;DHT22;8756;49.29324300;8.70599800;2022-10-31T00:47:20;11.70;99.90
5848;DHT22;8756;49.29324300;8.70599800;2022-10-31T00:49:45;11.70;99.90
5848;DHT22;8756;49.29324300;8.70599800;2022-10-31T00:52:11;11.70;99.90
5848;DHT22;8756;49.29324300;8.70599800;2022-10-31T00:54:37;11.70;99.90
5848;DHT22;8756;49.29324300;8.70599800;2022-10-31T00:57:03;11.70;99.90
5848;DHT22;8756;49.29324300;8.70599800;2022-10-31T00:59:29;11.70;99.90
5848;DHT22;8756;49.29324300;8.70599800;2022-10-31T01:01:54;11.70;99.90
5848;DHT22;8756;49.29324300;8.70599800;2022-10-31T01:04:20;11.70;99.90
5848;DHT22;8756;49.29324300;8.70599800;2022-10-31T01:06:46;11.70;99.90
5848;DHT22;8756;49.29324300;8.70599800;2022-10-31T01:09:11;11.60;99.90
5848;DHT22;8756;49.29324300;8.70599800;2022-10-31T01:11:37;11.60;99.90
5848;DHT22;8756;49.29324300;8.70599800;2022-10-31T01:14:03;11.60;99.90
5848;DHT22;8756;49.29324300;8.70599800;2022-10-31T01:16:28;11.50;99.90
5848;DHT22;8756;49.29324300;8.70599800;2022-10-31T01:18:57;11.50;99.90
5848;DHT22;8756;49.29324300;8.70599800;2022-10-31T01:21:25;11.50;99.90
5848;DHT22;8756;49.29324300;8.70599800;2022-10-31T01:23:55;11.50;99.90
5848;DHT22;8756;49.29324300;8.70599800;2022-10-31T01:26:23;11.50;99.90
5848;DHT22;8756;49.29324300;8.70599800;2022-10-31T01:28:56;11.40;99.90
5848;DHT22;8756;49.29324300;8.70599800;2022-10-31T01:31:25;11.40;99.90
5848;DHT22;8756;49.29324300;8.70599800;2022-10-31T01:33:54;11.40;99.90
5848;DHT22;8756;49.29324300;8.70599800;2022-10-31T01:36:26;11.40;99.90
5848;DHT22;8756;49.29324300;8.70599800;2022-10-31T01:38:57;11.40;99.90
5848;DHT22;8756;49.29324300;8.70599800;2022-10-31T01:41:31;11.40;99.90
5848;DHT22;8756;49.29324300;8.70599800;2022-10-31T01:43:59;11.30;99.90
5848;DHT22;8756;49.29324300;8.70599800;2022-10-31T01:46:33;11.40;99.90
5848;DHT22;8756;49.29324300;8.70599800;2022-10-31T01:49:05;11.30;99.90
5848;DHT22;8756;49.29324300;8.70599800;2022-10-31T01:51:40;11.30;99.90
5848;DHT22;8756;49.29324300;8.70599800;2022-10-31T01:54:14;11.30;99.90
5848;DHT22;8756;49.29324300;8.70599800;2022-10-31T01:56:44;11.20;99.90
5848;DHT22;8756;49.29324300;8.70599800;2022-10-31T01:59:15;11.20;99.90
5848;DHT22;8756;49.29324300;8.70599800;2022-10-31T02:01:43;11.10;99.90
5848;DHT22;8756;49.29324300;8.70599800;2022-10-31T02:04:08;11.10;99.90
5848;DHT22;8756;49.29324300;8.70599800;2022-10-31T02:06:43;11.10;99.90
5848;DHT22;8756;49.29324300;8.70599800;2022-10-31T02:09:12;11.00;99.90
5848;DHT22;8756;49.29324300;8.70599800;2022-10-31T02:11:40;11.00;99.90
5848;DHT22;8756;49.29324300;8.70599800;2022-10-31T02:14:06;11.00;99.90
5848;DHT22;8756;49.29324300;8.70599800;2022-10-31T02:16:32;10.90;99.90
5848;DHT22;8756;49.29324300;8.70599800;2022-10-31T02:18:58;10.90;99.90
5848;DHT22;8756;49.29324300;8.70599800;2022-10-31T02:33:50;10.80;99.90
5848;DHT22;8756;49.29324300;8.70599800;2022-10-31T02:39:34;10.70;99.90
5848;DHT22;8756;49.29324300;8.70599800;2022-10-31T02:42:22;10.70;99.90
5848;DHT22;8756;49.29324300;8.70599800;2022-10-31T02:45:13;10.70;99.90
5848;DHT22;8756;49.29324300;8.70599800;2022-10-31T02:47:48;10.60;99.90
5848;DHT22;8756;49.29324300;8.70599800;2022-10-31T02:50:21;10.60;99.90
5848;DHT22;8756;49.29324300;8.70599800;2022-10-31T02:52:52;10.60;99.90
5848;DHT22;8756;49.29324300;8.70599800;2022-10-31T02:58:17;10.60;99.90
5848;DHT22;8756;49.29324300;8.70599800;2022-10-31T03:00:43;10.60;99.90
5848;DHT22;8756;49.29324300;8.70599800;2022-10-31T03:03:19;10.60;99.90
5848;DHT22;8756;49.29324300;8.70599800;2022-10-31T03:06:14;10.60;99.90
5848;DHT22;8756;49.29324300;8.70599800;2022-10-31T03:08:52;10.50;99.90
5848;DHT22;8756;49.29324300;8.70599800;2022-10-31T03:11:24;10.50;99.90
5848;DHT22;8756;49.29324300;8.70599800;2022-10-31T03:14:03;10.50;99.90
5848;DHT22;8756;49.29324300;8.70599800;2022-10-31T03:16:47;10.50;99.90
5848;DHT22;8756;49.29324300;8.70599800;2022-10-31T03:19:23;10.60;99.90
5848;DHT22;8756;49.29324300;8.70599800;2022-10-31T03:21:58;10.60;99.90
5848;DHT22;8756;49.29324300;8.70599800;2022-10-31T03:24:36;10.60;99.90
5848;DHT22;8756;49.29324300;8.70599800;2022-10-31T03:27:04;10.70;99.90
5848;DHT22;8756;49.29324300;8.70599800;2022-10-31T03:29:35;10.70;99.90
5848;DHT22;8756;49.29324300;8.70599800;2022-10-31T03:32:15;10.70;99.90
5848;DHT22;8756;49.29324300;8.70599800;2022-10-31T03:34:44;10.70;99.90
5848;DHT22;8756;49.29324300;8.70599800;2022-10-31T03:37:13;10.80;99.90
5848;DHT22;8756;49.29324300;8.70599800;2022-10-31T03:39:41;10.80;99.90
5848;DHT22;8756;49.29324300;8.70599800;2022-10-31T03:42:15;10.80;99.90
5848;DHT22;8756;49.29324300;8.70599800;2022-10-31T03:44:52;10.80;99.90
5848;DHT22;8756;49.29324300;8.70599800;2022-10-31T03:47:20;10.80;99.90
5848;DHT22;8756;49.29324300;8.70599800;2022-10-31T03:49:47;10.80;99.90
5848;DHT22;8756;49.29324300;8.70599800;2022-10-31T03:58:03;10.80;99.90
5848;DHT22;8756;49.29324300;8.70599800;2022-10-31T04:00:34;10.80;99.90
5848;DHT22;8756;49.29324300;8.70599800;2022-10-31T04:03:15;10.80;99.90
5848;DHT22;8756;49.29324300;8.70599800;2022-10-31T04:05:45;10.80;99.90
5848;DHT22;8756;49.29324300;8.70599800;2022-10-31T04:08:17;10.80;99.90
5848;DHT22;8756;49.29324300;8.70599800;2022-10-31T04:10:47;10.80;99.90
5848;DHT22;8756;49.29324300;8.70599800;2022-10-31T04:13:17;10.80;99.90
5848;DHT22;8756;49.29324300;8.70599800;2022-10-31T04:15:46;10.80;99.90
5848;DHT22;8756;49.29324300;8.70599800;2022-10-31T04:18:13;10.80;99.90
5848;DHT22;8756;49.29324300;8.70599800;2022-10-31T04:20:40;10.80;99.90
5848;DHT22;8756;49.29324300;8.70599800;2022-10-31T04:23:33;10.80;99.90
5848;DHT22;8756;49.29324300;8.70599800;2022-10-31T04:26:00;10.80;99.90
5848;DHT22;8756;49.29324300;8.70599800;2022-10-31T04:28:26;10.70;99.90
5848;DHT22;8756;49.29324300;8.70599800;2022-10-31T04:30:52;10.70;99.90
5848;DHT22;8756;49.29324300;8.70599800;2022-10-31T04:33:18;10.60;99.90
5848;DHT22;8756;49.29324300;8.70599800;2022-10-31T04:35:44;10.60;99.90
5848;DHT22;8756;49.29324300;8.70599800;2022-10-31T04:38:10;10.50;99.90
5848;DHT22;8756;49.29324300;8.70599800;2022-10-31T04:40:36;10.50;99.90
5848;DHT22;8756;49.29324300;8.70599800;2022-10-31T04:43:01;10.40;99.90
5848;DHT22;8756;49.29324300;8.70599800;2022-10-31T04:45:27;10.30;99.90
5848;DHT22;8756;49.29324300;8.70599800;2022-10-31T04:47:53;10.30;99.90
5848;DHT22;8756;49.29324300;8.70599800;2022-10-31T04:50:19;10.30;99.90
5848;DHT22;8756;49.29324300;8.70599800;2022-10-31T04:52:45;10.30;99.90
5848;DHT22;8756;49.29324300;8.70599800;2022-10-31T04:55:12;10.20;99.90
5848;DHT22;8756;49.29324300;8.70599800;2022-10-31T04:57:43;10.20;99.90
5848;DHT22;8756;49.29324300;8.70599800;2022-10-31T05:00:10;10.20;99.90
5848;DHT22;8756;49.29324300;8.70599800;2022-10-31T05:02:45;10.20;99.90
5848;DHT22;8756;49.29324300;8.70599800;2022-10-31T05:05:15;10.20;99.90
5848;DHT22;8756;49.29324300;8.70599800;2022-10-31T05:07:44;10.20;99.90
5848;DHT22;8756;49.29324300;8.70599800;2022-10-31T05:10:13;10.20;99.90
5848;DHT22;8756;49.29324300;8.70599800;2022-10-31T05:12:54;10.20;99.90
5848;DHT22;8756;49.29324300;8.70599800;2022-10-31T05:15:22;10.20;99.90
5848;DHT22;8756;49.29324300;8.70599800;2022-10-31T05:17:49;10.30;99.90
5848;DHT22;8756;49.29324300;8.70599800;2022-10-31T05:20:17;10.30;99.90
5848;DHT22;8756;49.29324300;8.70599800;2022-10-31T05:22:50;10.30;99.90
5848;DHT22;8756;49.29324300;8.70599800;2022-10-31T05:25:17;10.30;99.90
5848;DHT22;8756;49.29324300;8.70599800;2022-10-31T05:27:46;10.40;99.90
5848;DHT22;8756;49.29324300;8.70599800;2022-10-31T05:30:19;10.40;99.90
5848;DHT22;8756;49.29324300;8.70599800;2022-10-31T05:32:48;10.50;99.90
5848;DHT22;8756;49.29324300;8.70599800;2022-10-31T05:35:20;10.40;99.90
5848;DHT22;8756;49.29324300;8.70599800;2022-10-31T05:37:47;10.40;99.90
5848;DHT22;8756;49.29324300;8.70599800;2022-10-31T05:40:14;10.40;99.90
5848;DHT22;8756;49.29324300;8.70599800;2022-10-31T05:42:42;10.40;99.90
5848;DHT22;8756;49.29324300;8.70599800;2022-10-31T05:45:10;10.40;99.90
5848;DHT22;8756;49.29324300;8.70599800;2022-10-31T05:47:38;10.40;99.90
5848;DHT22;8756;49.29324300;8.70599800;2022-10-31T05:50:05;10.50;99.90
5848;DHT22;8756;49.29324300;8.70599800;2022-10-31T05:52:32;10.40;99.90
5848;DHT22;8756;49.29324300;8.70599800;2022-10-31T05:54:57;10.40;99.90
5848;DHT22;8756;49.29324300;8.70599800;2022-10-31T05:57:23;10.30;99.90
5848;DHT22;8756;49.29324300;8.70599800;2022-10-31T05:59:49;10.40;99.90
5848;DHT22;8756;49.29324300;8.70599800;2022-10-31T06:02:18;10.30;99.90
5848;DHT22;8756;49.29324300;8.70599800;2022-10-31T06:04:45;10.30;99.90
5848;DHT22;8756;49.29324300;8.70599800;2022-10-31T06:07:10;10.30;99.90
5848;DHT22;8756;49.29324300;8.70599800;2022-10-31T06:09:36;10.30;99.90
5848;DHT22;8756;49.29324300;8.70599800;2022-10-31T06:12:02;10.30;99.90
5848;DHT22;8756;49.29324300;8.70599800;2022-10-31T06:14:27;10.30;99.90
5848;DHT22;8756;49.29324300;8.70599800;2022-10-31T06:16:56;10.40;99.90
5848;DHT22;8756;49.29324300;8.70599800;2022-10-31T06:19:22;10.40;99.90
5848;DHT22;8756;49.29324300;8.70599800;2022-10-31T06:21:48;10.30;99.90
5848;DHT22;8756;49.29324300;8.70599800;2022-10-31T06:24:13;10.30;99.90
5848;DHT22;8756;49.29324300;8.70599800;2022-10-31T06:26:40;10.30;99.90
5848;DHT22;8756;49.29324300;8.70599800;2022-10-31T06:29:06;10.30;99.90
5848;DHT22;8756;49.29324300;8.70599800;2022-10-31T06:31:32;10.30;99.90
5848;DHT22;8756;49.29324300;8.70599800;2022-10-31T06:33:57;10.30;99.90
5848;DHT22;8756;49.29324300;8.70599800;2022-10-31T06:36:23;10.30;99.90
5848;DHT22;8756;49.29324300;8.70599800;2022-10-31T06:38:49;10.30;99.90
5848;DHT22;8756;49.29324300;8.70599800;2022-10-31T06:41:14;10.20;99.90
5848;DHT22;8756;49.29324300;8.70599800;2022-10-31T06:43:40;10.20;99.90
5848;DHT22;8756;49.29324300;8.70599800;2022-10-31T06:46:06;10.20;99.90
5848;DHT22;8756;49.29324300;8.70599800;2022-10-31T06:48:32;10.20;99.90
5848;DHT22;8756;49.29324300;8.70599800;2022-10-31T06:50:59;10.30;99.90
5848;DHT22;8756;49.29324300;8.70599800;2022-10-31T06:53:28;10.30;99.90
5848;DHT22;8756;49.29324300;8.70599800;2022-10-31T06:55:58;10.30;99.90
5848;DHT22;8756;49.29324300;8.70599800;2022-10-31T06:58:24;10.30;99.90
5848;DHT22;8756;49.29324300;8.70599800;2022-10-31T07:00:50;10.30;99.90
5848;DHT22;8756;49.29324300;8.70599800;2022-10-31T07:03:15;10.30;99.90
5848;DHT22;8756;49.29324300;8.70599800;2022-10-31T07:05:42;10.40;99.90
5848;DHT22;8756;49.29324300;8.70599800;2022-10-31T07:08:10;10.40;99.90
5848;DHT22;8756;49.29324300;8.70599800;2022-10-31T07:10:39;10.40;99.90
5848;DHT22;8756;49.29324300;8.70599800;2022-10-31T07:13:10;10.40;99.90
5848;DHT22;8756;49.29324300;8.70599800;2022-10-31T07:15:39;10.40;99.90
5848;DHT22;8756;49.29324300;8.70599800;2022-10-31T07:18:07;10.50;99.90
5848;DHT22;8756;49.29324300;8.70599800;2022-10-31T07:20:35;10.60;99.90
5848;DHT22;8756;49.29324300;8.70599800;2022-10-31T07:23:04;10.60;99.90
5848;DHT22;8756;49.29324300;8.70599800;2022-10-31T07:25:30;10.70;99.90
5848;DHT22;8756;49.29324300;8.70599800;2022-10-31T07:27:58;10.70;99.90
5848;DHT22;8756;49.29324300;8.70599800;2022-10-31T07:30:24;10.80;99.90
5848;DHT22;8756;49.29324300;8.70599800;2022-10-31T07:32:50;10.80;99.90
5848;DHT22;8756;49.29324300;8.70599800;2022-10-31T07:35:25;10.90;99.90
5848;DHT22;8756;49.29324300;8.70599800;2022-10-31T07:37:52;11.00;99.90
5848;DHT22;8756;49.29324300;8.70599800;2022-10-31T07:40:19;11.00;99.90
5848;DHT22;8756;49.29324300;8.70599800;2022-10-31T07:42:47;11.10;99.90
5848;DHT22;8756;49.29324300;8.70599800;2022-10-31T07:45:16;11.10;99.90
5848;DHT22;8756;49.29324300;8.70599800;2022-10-31T07:47:46;11.20;99.90
5848;DHT22;8756;49.29324300;8.70599800;2022-10-31T07:50:18;11.20;99.90
5848;DHT22;8756;49.29324300;8.70599800;2022-10-31T07:52:57;11.30;99.90
5848;DHT22;8756;49.29324300;8.70599800;2022-10-31T07:55:25;11.30;99.90
5848;DHT22;8756;49.29324300;8.70599800;2022-10-31T07:58:03;11.40;99.90
5848;DHT22;8756;49.29324300;8.70599800;2022-10-31T08:00:31;11.40;99.90
5848;DHT22;8756;49.29324300;8.70599800;2022-10-31T08:03:03;11.50;99.90
5848;DHT22;8756;49.29324300;8.70599800;2022-10-31T08:05:34;11.50;99.90
5848;DHT22;8756;49.29324300;8.70599800;2022-10-31T08:08:00;11.60;99.90
5848;DHT22;8756;49.29324300;8.70599800;2022-10-31T08:10:27;11.70;99.90
5848;DHT22;8756;49.29324300;8.70599800;2022-10-31T08:13:02;11.70;99.90
5848;DHT22;8756;49.29324300;8.70599800;2022-10-31T08:15:30;11.80;99.90
5848;DHT22;8756;49.29324300;8.70599800;2022-10-31T08:17:56;11.80;99.90
5848;DHT22;8756;49.29324300;8.70599800;2022-10-31T08:20:22;11.90;99.90
5848;DHT22;8756;49.29324300;8.70599800;2022-10-31T08:22:55;11.90;99.90
5848;DHT22;8756;49.29324300;8.70599800;2022-10-31T08:25:25;12.00;99.90
5848;DHT22;8756;49.29324300;8.70599800;2022-10-31T08:27:53;12.10;99.90
5848;DHT22;8756;49.29324300;8.70599800;2022-10-31T08:30:21;12.10;99.90
5848;DHT22;8756;49.29324300;8.70599800;2022-10-31T08:33:00;12.20;99.90
5848;DHT22;8756;49.29324300;8.70599800;2022-10-31T08:35:27;12.20;99.90
5848;DHT22;8756;49.29324300;8.70599800;2022-10-31T08:37:57;12.30;99.90
5848;DHT22;8756;49.29324300;8.70599800;2022-10-31T08:40:28;12.40;99.90
5848;DHT22;8756;49.29324300;8.70599800;2022-10-31T08:43:01;12.40;99.90
5848;DHT22;8756;49.29324300;8.70599800;2022-10-31T08:45:29;12.50;99.90
5848;DHT22;8756;49.29324300;8.70599800;2022-10-31T08:47:58;12.60;99.90
5848;DHT22;8756;49.29324300;8.70599800;2022-10-31T08:50:32;12.70;99.90
5848;DHT22;8756;49.29324300;8.70599800;2022-10-31T08:53:26;12.70;99.90
5848;DHT22;8756;49.29324300;8.70599800;2022-10-31T08:55:54;12.70;99.90
5848;DHT22;8756;49.29324300;8.70599800;2022-10-31T08:58:22;12.80;99.90
5848;DHT22;8756;49.29324300;8.70599800;2022-10-31T09:00:52;12.90;99.90
5848;DHT22;8756;49.29324300;8.70599800;2022-10-31T09:03:21;13.00;99.90
5848;DHT22;8756;49.29324300;8.70599800;2022-10-31T09:05:47;13.00;99.90
5848;DHT22;8756;49.29324300;8.70599800;2022-10-31T09:08:14;13.10;99.90
5848;DHT22;8756;49.29324300;8.70599800;2022-10-31T09:10:40;13.20;99.90
5848;DHT22;8756;49.29324300;8.70599800;2022-10-31T09:13:10;13.20;99.90
5848;DHT22;8756;49.29324300;8.70599800;2022-10-31T09:15:38;13.30;99.90
5848;DHT22;8756;49.29324300;8.70599800;2022-10-31T09:18:06;13.40;99.90
5848;DHT22;8756;49.29324300;8.70599800;2022-10-31T09:20:33;13.50;99.90
5848;DHT22;8756;49.29324300;8.70599800;2022-10-31T09:23:02;13.60;99.90
5848;DHT22;8756;49.29324300;8.70599800;2022-10-31T09:25:30;13.70;99.90
5848;DHT22;8756;49.29324300;8.70599800;2022-10-31T09:27:57;13.70;99.90
5848;DHT22;8756;49.29324300;8.70599800;2022-10-31T09:30:25;13.80;99.90
5848;DHT22;8756;49.29324300;8.70599800;2022-10-31T09:33:11;13.90;99.90
5848;DHT22;8756;49.29324300;8.70599800;2022-10-31T09:35:38;13.90;99.90
5848;DHT22;8756;49.29324300;8.70599800;2022-10-31T09:38:17;14.00;99.90
5848;DHT22;8756;49.29324300;8.70599800;2022-10-31T09:46:46;14.20;99.90
5848;DHT22;8756;49.29324300;8.70599800;2022-10-31T09:52:33;14.30;99.90
5848;DHT22;8756;49.29324300;8.70599800;2022-10-31T09:55:16;14.30;99.90
5848;DHT22;8756;49.29324300;8.70599800;2022-10-31T09:57:44;14.40;99.90
5848;DHT22;8756;49.29324300;8.70599800;2022-10-31T10:00:20;14.50;99.90
5848;DHT22;8756;49.29324300;8.70599800;2022-10-31T10:03:07;14.60;99.90
5848;DHT22;8756;49.29324300;8.70599800;2022-10-31T10:08:44;14.60;99.90
5848;DHT22;8756;49.29324300;8.70599800;2022-10-31T10:24:08;14.90;99.90
5848;DHT22;8756;49.29324300;8.70599800;2022-10-31T10:26:36;14.90;99.90
5848;DHT22;8756;49.29324300;8.70599800;2022-10-31T10:29:25;15.00;99.90
5848;DHT22;8756;49.29324300;8.70599800;2022-10-31T10:31:58;15.00;99.90
5848;DHT22;8756;49.29324300;8.70599800;2022-10-31T10:34:30;15.10;99.90
5848;DHT22;8756;49.29324300;8.70599800;2022-10-31T10:37:05;15.10;99.90
5848;DHT22;8756;49.29324300;8.70599800;2022-10-31T10:39:45;15.10;99.90
5848;DHT22;8756;49.29324300;8.70599800;2022-10-31T10:42:15;15.20;99.90
5848;DHT22;8756;49.29324300;8.70599800;2022-10-31T10:45:16;15.30;99.90
5848;DHT22;8756;49.29324300;8.70599800;2022-10-31T10:48:12;15.30;99.90
5848;DHT22;8756;49.29324300;8.70599800;2022-10-31T10:50:51;15.30;99.90
5848;DHT22;8756;49.29324300;8.70599800;2022-10-31T10:53:39;15.40;99.90
5848;DHT22;8756;49.29324300;8.70599800;2022-10-31T10:56:44;15.40;99.90
5848;DHT22;8756;49.29324300;8.70599800;2022-10-31T10:59:13;15.40;99.90
5848;DHT22;8756;49.29324300;8.70599800;2022-10-31T11:01:44;15.40;99.90
5848;DHT22;8756;49.29324300;8.70599800;2022-10-31T11:04:35;15.50;99.90
5848;DHT22;8756;49.29324300;8.70599800;2022-10-31T11:07:07;15.50;99.90
5848;DHT22;8756;49.29324300;8.70599800;2022-10-31T11:09:35;15.50;99.90
5848;DHT22;8756;49.29324300;8.70599800;2022-10-31T11:12:30;15.50;99.90
5848;DHT22;8756;49.29324300;8.70599800;2022-10-31T11:15:15;15.50;99.90
5848;DHT22;8756;49.29324300;8.70599800;2022-10-31T11:17:51;15.50;99.90
5848;DHT22;8756;49.29324300;8.70599800;2022-10-31T11:22:45;15.60;99.90
5848;DHT22;8756;49.29324300;8.70599800;2022-10-31T11:25:23;15.60;99.90
5848;DHT22;8756;49.29324300;8.70599800;2022-10-31T11:28:05;15.60;99.90
5848;DHT22;8756;49.29324300;8.70599800;2022-10-31T11:30:42;15.70;99.90
5848;DHT22;8756;49.29324300;8.70599800;2022-10-31T11:33:20;15.70;99.90
5848;DHT22;8756;49.29324300;8.70599800;2022-10-31T11:36:01;15.70;99.90
5848;DHT22;8756;49.29324300;8.70599800;2022-10-31T11:38:40;15.80;99.90
5848;DHT22;8756;49.29324300;8.70599800;2022-10-31T11:41:11;15.80;99.90
5848;DHT22;8756;49.29324300;8.70599800;2022-10-31T11:46:48;15.90;99.90
5848;DHT22;8756;49.29324300;8.70599800;2022-10-31T11:49:36;15.90;99.90
5848;DHT22;8756;49.29324300;8.70599800;2022-10-31T11:52:07;15.90;99.90
5848;DHT22;8756;49.29324300;8.70599800;2022-10-31T11:54:47;15.90;99.90
5848;DHT22;8756;49.29324300;8.70599800;2022-10-31T11:57:33;15.90;99.90
5848;DHT22;8756;49.29324300;8.70599800;2022-10-31T12:00:22;15.90;99.90
5848;DHT22;8756;49.29324300;8.70599800;2022-10-31T12:02:50;16.00;99.90
5848;DHT22;8756;49.29324300;8.70599800;2022-10-31T12:05:24;16.00;99.90
5848;DHT22;8756;49.29324300;8.70599800;2022-10-31T12:07:54;16.00;99.90
5848;DHT22;8756;49.29324300;8.70599800;2022-10-31T12:10:23;16.00;99.90
5848;DHT22;8756;49.29324300;8.70599800;2022-10-31T12:13:15;16.00;99.90
5848;DHT22;8756;49.29324300;8.70599800;2022-10-31T12:16:42;16.10;99.90
5848;DHT22;8756;49.29324300;8.70599800;2022-10-31T12:19:05;16.10;99.90
5848;DHT22;8756;49.29324300;8.70599800;2022-10-31T12:21:46;16.10;99.90
5848;DHT22;8756;49.29324300;8.70599800;2022-10-31T12:24:28;16.10;99.90
5848;DHT22;8756;49.29324300;8.70599800;2022-10-31T12:27:17;16.10;99.90
5848;DHT22;8756;49.29324300;8.70599800;2022-10-31T12:30:20;16.20;99.90
5848;DHT22;8756;49.29324300;8.70599800;2022-10-31T12:44:29;16.20;99.90
5848;DHT22;8756;49.29324300;8.70599800;2022-10-31T12:47:33;16.20;99.90
5848;DHT22;8756;49.29324300;8.70599800;2022-10-31T12:50:31;16.10;99.90
5848;DHT22;8756;49.29324300;8.70599800;2022-10-31T12:58:38;16.20;99.90
5848;DHT22;8756;49.29324300;8.70599800;2022-10-31T13:01:12;16.20;99.90
5848;DHT22;8756;49.29324300;8.70599800;2022-10-31T13:06:16;16.30;99.90
5848;DHT22;8756;49.29324300;8.70599800;2022-10-31T13:08:49;16.30;99.90
5848;DHT22;8756;49.29324300;8.70599800;2022-10-31T13:11:47;16.40;99.90
5848;DHT22;8756;49.29324300;8.70599800;2022-10-31T13:16:54;16.50;99.90
5848;DHT22;8756;49.29324300;8.70599800;2022-10-31T13:19:27;16.50;99.90
5848;DHT22;8756;49.29324300;8.70599800;2022-10-31T13:22:25;16.50;99.90
5848;DHT22;8756;49.29324300;8.70599800;2022-10-31T13:27:59;16.50;99.90
5848;DHT22;8756;49.29324300;8.70599800;2022-10-31T13:30:38;16.50;99.90
5848;DHT22;8756;49.29324300;8.70599800;2022-10-31T13:33:23;16.50;99.90
5848;DHT22;8756;49.29324300;8.70599800;2022-10-31T13:39:30;16.50;99.90
5848;DHT22;8756;49.29324300;8.70599800;2022-10-31T13:42:57;16.50;99.90
5848;DHT22;8756;49.29324300;8.70599800;2022-10-31T13:45:50;16.60;99.90
5848;DHT22;8756;49.29324300;8.70599800;2022-10-31T13:48:39;16.60;99.90
5848;DHT22;8756;49.29324300;8.70599800;2022-10-31T13:51:09;16.60;99.90
5848;DHT22;8756;49.29324300;8.70599800;2022-10-31T13:53:39;16.60;99.90
5848;DHT22;8756;49.29324300;8.70599800;2022-10-31T13:56:33;16.80;99.90
5848;DHT22;8756;49.29324300;8.70599800;2022-10-31T13:59:19;16.90;99.90
5848;DHT22;8756;49.29324300;8.70599800;2022-10-31T14:01:55;16.90;99.90
5848;DHT22;8756;49.29324300;8.70599800;2022-10-31T14:04:47;17.00;99.90
5848;DHT22;8756;49.29324300;8.70599800;2022-10-31T14:07:16;17.00;99.90
5848;DHT22;8756;49.29324300;8.70599800;2022-10-31T14:10:04;17.00;99.90
5848;DHT22;8756;49.29324300;8.70599800;2022-10-31T14:15:24;17.00;99.90
5848;DHT22;8756;49.29324300;8.70599800;2022-10-31T14:17:56;17.00;99.90
5848;DHT22;8756;49.29324300;8.70599800;2022-10-31T14:20:42;17.00;99.90
5848;DHT22;8756;49.29324300;8.70599800;2022-10-31T14:28:53;17.00;99.90
5848;DHT22;8756;49.29324300;8.70599800;2022-10-31T14:31:43;17.00;99.90
5848;DHT22;8756;49.29324300;8.70599800;2022-10-31T14:45:50;16.90;99.90
5848;DHT22;8756;49.29324300;8.70599800;2022-10-31T14:51:29;16.70;99.90
5848;DHT22;8756;49.29324300;8.70599800;2022-10-31T14:54:14;16.70;99.90
5848;DHT22;8756;49.29324300;8.70599800;2022-10-31T14:56:55;16.60;99.90
5848;DHT22;8756;49.29324300;8.70599800;2022-10-31T14:59:30;16.60;99.90
5848;DHT22;8756;49.29324300;8.70599800;2022-10-31T15:02:01;16.60;99.90
5848;DHT22;8756;49.29324300;8.70599800;2022-10-31T15:04:34;16.50;99.90
5848;DHT22;8756;49.29324300;8.70599800;2022-10-31T15:07:09;16.50;99.90
5848;DHT22;8756;49.29324300;8.70599800;2022-10-31T15:09:38;16.40;99.90
5848;DHT22;8756;49.29324300;8.70599800;2022-10-31T15:12:25;16.40;99.90
5848;DHT22;8756;49.29324300;8.70599800;2022-10-31T15:14:53;16.40;99.90
5848;DHT22;8756;49.29324300;8.70599800;2022-10-31T15:17:20;16.40;99.90
5848;DHT22;8756;49.29324300;8.70599800;2022-10-31T15:19:46;16.30;99.90
5848;DHT22;8756;49.29324300;8.70599800;2022-10-31T15:22:22;16.30;99.90
5848;DHT22;8756;49.29324300;8.70599800;2022-10-31T15:24:49;16.30;99.90
5848;DHT22;8756;49.29324300;8.70599800;2022-10-31T15:27:22;16.30;99.90
5848;DHT22;8756;49.29324300;8.70599800;2022-10-31T15:29:49;16.30;99.90
5848;DHT22;8756;49.29324300;8.70599800;2022-10-31T15:34:46;16.30;99.90
5848;DHT22;8756;49.29324300;8.70599800;2022-10-31T15:37:20;16.30;99.90
5848;DHT22;8756;49.29324300;8.70599800;2022-10-31T15:39:47;16.30;99.90
5848;DHT22;8756;49.29324300;8.70599800;2022-10-31T15:42:33;16.20;99.90
5848;DHT22;8756;49.29324300;8.70599800;2022-10-31T15:45:15;16.20;99.90
5848;DHT22;8756;49.29324300;8.70599800;2022-10-31T15:47:53;16.20;99.90
5848;DHT22;8756;49.29324300;8.70599800;2022-10-31T15:50:32;16.20;99.90
5848;DHT22;8756;49.29324300;8.70599800;2022-10-31T15:53:01;16.10;99.90
5848;DHT22;8756;49.29324300;8.70599800;2022-10-31T15:55:34;16.10;99.90
5848;DHT22;8756;49.29324300;8.70599800;2022-10-31T15:58:10;16.10;99.90
5848;DHT22;8756;49.29324300;8.70599800;2022-10-31T16:00:38;16.00;99.90
5848;DHT22;8756;49.29324300;8.70599800;2022-10-31T16:05:55;16.00;99.90
5848;DHT22;8756;49.29324300;8.70599800;2022-10-31T16:13:36;15.90;99.90